Time;durP1;ratioP1;P1;durP2;ratioP2;P2;SDS_P1;SDS_P2;PMS_P1;PMS_P2;Temp;Humidity;BMP_temperature;BMP_pressure;BME280_temperature;BME280_humidity;BME280_pressure;Samples;Min_cycle;Max_cycle;Signal;HPM_P1;HPM_P2
2022/05/03 00:01:37;;;;;;;4.35;2.13;;;4.70;79.50;;;;;;5065262;28;20127;-72
2022/05/03 00:04:12;;;;;;;6.07;2.50;;;4.60;80.00;;;;;;5101445;28;20034;-72
2022/05/03 00:06:56;;;;;;;4.97;2.33;;;4.60;79.80;;;;;;5094417;28;20097;-72
2022/05/03 00:09:36;;;;;;;7.28;2.80;;;4.50;80.30;;;;;;5079594;28;20123;-72
2022/05/03 00:12:05;;;;;;;3.78;2.35;;;4.50;81.60;;;;;;5092230;28;20475;-72
2022/05/03 00:14:45;;;;;;;6.60;2.45;;;4.50;81.90;;;;;;5091020;28;20031;-72
2022/05/03 00:17:15;;;;;;;5.38;2.35;;;4.30;81.30;;;;;;5073778;28;20395;-72
2022/05/03 00:19:43;;;;;;;9.60;2.83;;;4.30;80.90;;;;;;5089457;28;20020;-72
2022/05/03 00:22:13;;;;;;;5.97;2.72;;;4.30;82.00;;;;;;5092702;28;20028;-72
2022/05/03 00:24:40;;;;;;;4.60;2.05;;;4.20;82.20;;;;;;5073955;28;20059;-72
2022/05/03 00:27:05;;;;;;;5.30;2.17;;;4.10;81.80;;;;;;5086183;28;20029;-72
2022/05/03 00:29:33;;;;;;;3.78;2.50;;;4.10;82.20;;;;;;5093679;28;20040;-72
2022/05/03 00:32:01;;;;;;;4.80;2.67;;;4.10;82.50;;;;;;5089587;28;20028;-70
2022/05/03 00:34:30;;;;;;;4.72;2.67;;;4.10;82.10;;;;;;5084864;28;20393;-70
2022/05/03 00:36:56;;;;;;;4.05;2.50;;;4.00;81.80;;;;;;5091738;28;20093;-70
2022/05/03 00:39:21;;;;;;;4.88;2.33;;;4.00;82.40;;;;;;5088066;28;20040;-70
2022/05/03 00:42:03;;;;;;;4.57;2.20;;;3.90;82.40;;;;;;5087194;28;20048;-70
2022/05/03 00:44:56;;;;;;;5.43;2.63;;;3.90;82.60;;;;;;5095614;28;20046;-70
2022/05/03 00:48:01;;;;;;;4.93;2.60;;;3.90;82.90;;;;;;5084859;28;20067;-70
2022/05/03 00:51:00;;;;;;;3.97;2.50;;;3.90;83.70;;;;;;5089699;28;20036;-70
2022/05/03 00:53:33;;;;;;;4.90;2.50;;;3.80;83.70;;;;;;5083891;28;20024;-70
2022/05/03 00:56:28;;;;;;;4.55;2.85;;;3.80;82.40;;;;;;5095218;28;20031;-70
2022/05/03 00:59:12;;;;;;;5.85;2.40;;;3.60;82.80;;;;;;5090622;28;20028;-70
2022/05/03 01:01:47;;;;;;;7.75;2.50;;;3.60;83.80;;;;;;5087807;28;20024;-70
2022/05/03 01:04:37;;;;;;;6.03;2.83;;;3.50;83.90;;;;;;5097779;28;20034;-70
2022/05/03 01:07:33;;;;;;;5.53;2.80;;;3.50;84.10;;;;;;5082904;28;20055;-70
2022/05/03 01:10:21;;;;;;;8.07;2.92;;;3.50;84.60;;;;;;5088333;28;20048;-70
2022/05/03 01:13:01;;;;;;;6.88;3.00;;;3.50;84.50;;;;;;5091877;28;20519;-70
2022/05/03 01:15:33;;;;;;;6.45;3.25;;;3.50;84.60;;;;;;5087340;28;20043;-70
2022/05/03 01:18:24;;;;;;;4.75;3.03;;;3.50;84.90;;;;;;5090366;28;20020;-70
2022/05/03 01:21:23;;;;;;;7.78;3.10;;;3.40;85.40;;;;;;5086564;28;20066;-70
2022/05/03 01:24:16;;;;;;;5.75;2.75;;;3.40;85.60;;;;;;5101672;28;20040;-70
2022/05/03 01:26:54;;;;;;;5.15;2.90;;;3.30;85.40;;;;;;5090638;28;20040;-70
2022/05/03 01:29:30;;;;;;;6.18;2.60;;;3.30;85.50;;;;;;5091780;28;20032;-70
2022/05/03 01:31:59;;;;;;;5.32;3.08;;;3.30;85.70;;;;;;5089818;28;20035;-70
2022/05/03 01:34:26;;;;;;;7.45;2.78;;;3.20;85.40;;;;;;5090221;28;20060;-70
2022/05/03 01:37:24;;;;;;;8.10;2.80;;;3.30;85.60;;;;;;5072612;28;20475;-70
2022/05/03 01:40:08;;;;;;;6.53;2.95;;;3.30;85.80;;;;;;5057201;28;20059;-70
2022/05/03 01:43:13;;;;;;;8.07;3.28;;;3.30;85.60;;;;;;5090223;28;20065;-70
2022/05/03 01:46:03;;;;;;;5.63;3.05;;;3.30;85.50;;;;;;5091481;28;20077;-70
2022/05/03 01:51:44;;;;;;;7.05;3.10;;;3.20;85.40;;;;;;5087921;28;20042;-70
2022/05/03 01:54:43;;;;;;;7.10;3.33;;;3.10;85.30;;;;;;5085354;28;20077;-70
2022/05/03 01:57:31;;;;;;;5.20;2.78;;;3.00;86.00;;;;;;5084440;28;20039;-70
2022/05/03 02:00:04;;;;;;;5.43;2.95;;;3.00;87.20;;;;;;5091771;28;20058;-70
2022/05/03 02:02:54;;;;;;;5.40;3.25;;;3.00;87.40;;;;;;5090528;28;20448;-70
2022/05/03 02:05:38;;;;;;;5.60;3.40;;;3.00;87.50;;;;;;5075296;28;20044;-70
2022/05/03 02:08:09;;;;;;;5.57;2.83;;;3.10;87.70;;;;;;5095923;28;20040;-70
2022/05/03 02:11:01;;;;;;;11.07;3.42;;;3.10;87.70;;;;;;5088279;28;20113;-70
2022/05/03 02:16:58;;;;;;;8.45;3.30;;;3.10;87.70;;;;;;5087478;28;20077;-70
2022/05/03 02:19:38;;;;;;;6.85;3.42;;;3.10;87.50;;;;;;5095342;28;20027;-70
2022/05/03 02:22:04;;;;;;;6.43;3.70;;;3.00;87.50;;;;;;5088392;28;20028;-70
2022/05/03 02:24:50;;;;;;;5.10;3.13;;;3.00;87.50;;;;;;5090197;28;20394;-70
2022/05/03 02:27:18;;;;;;;6.63;3.45;;;3.00;88.00;;;;;;5082767;28;20040;-70
2022/05/03 02:29:47;;;;;;;4.47;3.20;;;3.00;88.20;;;;;;5088776;28;20030;-70
2022/05/03 02:32:17;;;;;;;6.35;4.07;;;3.00;87.90;;;;;;5092650;28;20035;-70
2022/05/03 02:34:58;;;;;;;7.35;3.90;;;3.00;87.80;;;;;;5087276;28;20087;-70
2022/05/03 02:37:30;;;;;;;6.55;4.03;;;3.00;87.70;;;;;;5085355;28;20032;-70
2022/05/03 02:40:04;;;;;;;6.70;3.65;;;3.00;87.80;;;;;;5089280;28;20103;-70
2022/05/03 02:42:31;;;;;;;8.05;3.97;;;2.90;87.80;;;;;;5092225;28;20044;-70
2022/05/03 02:45:00;;;;;;;7.05;3.97;;;2.90;87.80;;;;;;5090453;28;20485;-70
2022/05/03 02:47:49;;;;;;;6.95;3.92;;;2.90;88.10;;;;;;5084816;28;20051;-70
2022/05/03 02:50:19;;;;;;;8.27;4.38;;;2.90;88.20;;;;;;5070543;28;20386;-70
2022/05/03 02:53:02;;;;;;;6.70;3.10;;;2.90;88.20;;;;;;5091323;28;20090;-70
2022/05/03 02:55:50;;;;;;;11.77;4.43;;;2.80;88.20;;;;;;5086999;28;20094;-70
2022/05/03 02:58:52;;;;;;;8.07;4.38;;;2.80;88.30;;;;;;5091579;28;20036;-70
2022/05/03 03:01:48;;;;;;;10.27;4.60;;;2.90;88.60;;;;;;5068390;28;20388;-70
2022/05/03 03:04:34;;;;;;;6.45;4.32;;;3.00;88.80;;;;;;5088557;28;20123;-70
2022/05/03 03:07:02;;;;;;;6.30;3.80;;;3.00;88.90;;;;;;5091061;28;20055;-70
2022/05/03 03:09:51;;;;;;;8.18;4.28;;;3.00;88.90;;;;;;5087747;28;20062;-70
2022/05/03 03:12:30;;;;;;;7.05;3.85;;;3.00;88.70;;;;;;5073195;28;20033;-70
2022/05/03 03:15:07;;;;;;;8.35;4.50;;;2.90;88.60;;;;;;5070563;28;20059;-70
2022/05/03 03:17:41;;;;;;;7.43;4.10;;;2.80;88.60;;;;;;5087263;28;20028;-70
2022/05/03 03:20:14;;;;;;;7.05;4.10;;;2.70;88.40;;;;;;5084700;28;20117;-70
2022/05/03 03:22:45;;;;;;;6.53;4.25;;;2.70;88.10;;;;;;5064831;28;20036;-70
2022/05/03 03:25:11;;;;;;;;;;;2.70;88.30;;;;;;5086667;28;20056;-70
2022/05/03 03:27:38;;;;;;;6.32;4.03;;;2.60;88.10;;;;;;5092732;28;19957;-70
2022/05/03 03:30:07;;;;;;;6.72;4.32;;;2.60;88.70;;;;;;5084455;28;20044;-70
2022/05/03 03:32:36;;;;;;;9.45;4.40;;;2.60;89.00;;;;;;5076264;28;20467;-70
2022/05/03 03:35:02;;;;;;;8.57;4.13;;;2.50;89.10;;;;;;5088142;28;20765;-70
2022/05/03 03:37:31;;;;;;;6.50;4.07;;;2.50;89.10;;;;;;5093662;28;20072;-70
2022/05/03 03:39:57;;;;;;;7.10;4.05;;;2.50;89.20;;;;;;5092125;28;20036;-70
2022/05/03 03:42:26;;;;;;;10.35;4.82;;;2.40;89.40;;;;;;5090386;28;20117;-70
2022/05/03 03:44:52;;;;;;;8.23;4.63;;;2.50;89.70;;;;;;5092262;28;20031;-70
2022/05/03 03:47:17;;;;;;;9.82;5.28;;;2.50;89.80;;;;;;5066165;28;20032;-70
2022/05/03 03:49:43;;;;;;;8.15;5.10;;;2.50;89.90;;;;;;5084907;28;20372;-70
2022/05/03 03:52:10;;;;;;;9.50;4.75;;;2.50;89.90;;;;;;5087982;28;20623;-70
2022/05/03 03:54:36;;;;;;;10.02;4.80;;;2.60;90.00;;;;;;5082217;28;20103;-70
2022/05/03 03:57:04;;;;;;;8.88;4.57;;;2.60;90.00;;;;;;5089155;28;20107;-70
2022/05/03 03:59:31;;;;;;;8.75;4.60;;;2.60;90.00;;;;;;5087914;28;20036;-70
2022/05/03 04:01:58;;;;;;;9.35;5.07;;;2.60;90.00;;;;;;5085323;28;20032;-70
2022/05/03 04:04:28;;;;;;;8.43;4.78;;;2.60;89.80;;;;;;5084827;28;20024;-70
2022/05/03 04:06:54;;;;;;;7.93;4.90;;;2.70;89.80;;;;;;5083288;28;20126;-70
2022/05/03 04:09:19;;;;;;;7.28;5.05;;;2.60;89.80;;;;;;5089122;28;20119;-70
2022/05/03 04:11:46;;;;;;;9.27;5.03;;;2.60;90.00;;;;;;5087170;28;20028;-70
2022/05/03 04:14:13;;;;;;;10.35;4.93;;;2.70;90.00;;;;;;5067543;28;20036;-70
2022/05/03 04:16:39;;;;;;;7.90;4.90;;;2.60;89.90;;;;;;5081264;28;20020;-70
2022/05/03 04:19:05;;;;;;;6.65;4.43;;;2.70;89.90;;;;;;5088709;28;20024;-68
2022/05/03 04:21:31;;;;;;;7.00;4.10;;;2.70;90.00;;;;;;5080440;28;20103;-68
2022/05/03 04:23:56;;;;;;;6.75;4.03;;;2.60;89.70;;;;;;5084746;28;20099;-68
2022/05/03 04:26:22;;;;;;;7.40;4.10;;;2.60;89.70;;;;;;5089464;28;20391;-69
2022/05/03 04:28:47;;;;;;;8.25;4.82;;;2.60;89.60;;;;;;5088042;28;20036;-69
2022/05/03 04:31:13;;;;;;;8.13;4.65;;;2.70;89.80;;;;;;5085149;28;20474;-69
2022/05/03 04:33:38;;;;;;;8.30;4.80;;;2.80;89.90;;;;;;5091171;28;20035;-69
2022/05/03 04:36:04;;;;;;;8.23;4.32;;;2.90;90.00;;;;;;5093294;28;20042;-69
2022/05/03 04:38:30;;;;;;;7.55;4.95;;;2.90;89.90;;;;;;5084666;28;21265;-69
2022/05/03 04:41:00;;;;;;;9.32;4.82;;;3.00;89.90;;;;;;5091056;28;20087;-69
2022/05/03 04:43:26;;;;;;;8.15;4.90;;;3.00;89.70;;;;;;5092286;28;20039;-68
2022/05/03 04:45:52;;;;;;;8.25;4.85;;;3.10;89.60;;;;;;5091168;28;20035;-69
2022/05/03 04:48:17;;;;;;;7.88;4.28;;;3.10;89.60;;;;;;5096696;28;20047;-69
2022/05/03 04:50:43;;;;;;;9.30;4.97;;;3.10;89.60;;;;;;5083552;28;20028;-69
2022/05/03 04:53:09;;;;;;;8.40;4.93;;;3.20;89.60;;;;;;5091962;28;20032;-69
2022/05/03 04:55:38;;;;;;;7.90;4.80;;;3.30;89.60;;;;;;5089948;28;20040;-69
2022/05/03 04:58:04;;;;;;;10.63;4.80;;;3.40;89.40;;;;;;5093658;28;20672;-71
2022/05/03 05:00:30;;;;;;;9.98;4.88;;;3.50;89.30;;;;;;5090804;28;20123;-71
2022/05/03 05:02:55;;;;;;;7.70;4.40;;;3.70;89.20;;;;;;5087046;28;20410;-71
2022/05/03 05:05:21;;;;;;;7.93;4.47;;;3.80;89.00;;;;;;5085840;28;20107;-69
2022/05/03 05:07:46;;;;;;;9.57;4.68;;;3.90;88.90;;;;;;5091572;28;20028;-69
2022/05/03 05:10:24;;;;;;;9.15;4.57;;;4.10;88.60;;;;;;5090959;28;20040;-69
2022/05/03 05:12:54;;;;;;;7.93;4.75;;;4.20;88.40;;;;;;5098677;28;20032;-68
2022/05/03 05:15:23;;;;;;;10.10;4.80;;;4.30;88.20;;;;;;5096893;28;20078;-68
2022/05/03 05:17:49;;;;;;;7.78;4.50;;;4.40;88.10;;;;;;5097504;28;20093;-68
2022/05/03 05:20:14;;;;;;;7.22;4.35;;;4.50;87.90;;;;;;5101719;28;20048;-69
2022/05/03 05:22:42;;;;;;;9.38;4.50;;;4.60;87.60;;;;;;5092627;28;20032;-69
2022/05/03 05:25:08;;;;;;;7.47;4.40;;;4.70;87.50;;;;;;5093093;28;20243;-69
2022/05/03 05:27:33;;;;;;;6.82;4.38;;;4.80;87.30;;;;;;5102827;28;20036;-71
2022/05/03 05:29:59;;;;;;;9.57;4.53;;;4.90;87.00;;;;;;5095444;28;20084;-71
2022/05/03 05:32:24;;;;;;;8.05;4.45;;;5.10;87.20;;;;;;5087328;28;20039;-70
2022/05/03 05:34:50;;;;;;;10.05;4.70;;;5.20;86.70;;;;;;5083514;28;20086;-71
2022/05/03 05:37:15;;;;;;;7.97;4.53;;;5.20;86.50;;;;;;5093029;28;20524;-70
2022/05/03 05:39:41;;;;;;;8.88;5.57;;;5.40;86.60;;;;;;5093488;28;20032;-70
2022/05/03 05:42:06;;;;;;;9.00;5.60;;;5.70;86.80;;;;;;5094137;28;20055;-70
2022/05/03 05:44:32;;;;;;;9.10;5.20;;;5.90;86.20;;;;;;5105736;28;20027;-70
2022/05/03 05:46:57;;;;;;;7.53;5.05;;;6.10;85.50;;;;;;5090118;28;20036;-70
2022/05/03 05:49:23;;;;;;;10.73;5.43;;;6.20;85.90;;;;;;5092917;28;20051;-70
2022/05/03 05:51:48;;;;;;;12.95;6.10;;;6.40;85.80;;;;;;5101394;28;20090;-70
2022/05/03 05:54:17;;;;;;;12.20;7.28;;;6.70;85.70;;;;;;5087734;28;20127;-70
2022/05/03 05:56:44;;;;;;;10.57;7.53;;;6.80;85.40;;;;;;5092317;28;20107;-70
2022/05/03 05:59:10;;;;;;;10.38;6.70;;;7.10;85.10;;;;;;5091092;28;20166;-71
2022/05/03 06:01:39;;;;;;;13.77;7.80;;;7.30;84.60;;;;;;5089396;28;20111;-71
2022/05/03 06:04:05;;;;;;;10.68;7.28;;;7.50;84.10;;;;;;5092495;28;20546;-71
2022/05/03 06:06:32;;;;;;;10.77;7.25;;;7.50;83.80;;;;;;5104672;28;20032;-71
2022/05/03 06:08:59;;;;;;;10.77;7.13;;;7.60;83.60;;;;;;5100436;28;20030;-71
2022/05/03 06:11:24;;;;;;;11.68;7.35;;;7.60;83.30;;;;;;5084881;28;20367;-71
2022/05/03 06:13:50;;;;;;;11.68;7.45;;;7.60;84.10;;;;;;5108491;28;20034;-71
2022/05/03 06:16:16;;;;;;;13.00;8.45;;;7.60;84.10;;;;;;5089752;28;20020;-71
2022/05/03 06:18:41;;;;;;;11.82;7.28;;;7.80;84.40;;;;;;5090531;28;20032;-71
2022/05/03 06:21:10;;;;;;;14.30;8.73;;;8.10;84.20;;;;;;5080396;28;20055;-71
2022/05/03 06:23:36;;;;;;;13.68;7.60;;;8.20;83.90;;;;;;5086107;28;20436;-71
2022/05/03 06:26:05;;;;;;;12.63;8.18;;;8.30;83.80;;;;;;5088615;28;20024;-71
2022/05/03 06:28:31;;;;;;;14.60;7.55;;;8.50;83.90;;;;;;5090188;28;20043;-71
2022/05/03 06:30:57;;;;;;;15.32;8.85;;;8.60;83.60;;;;;;5087006;28;20032;-71
2022/05/03 06:33:22;;;;;;;13.27;8.25;;;8.80;83.00;;;;;;5087306;28;20039;-72
2022/05/03 06:35:48;;;;;;;9.93;7.15;;;9.00;82.90;;;;;;5085871;28;20427;-72
2022/05/03 06:38:13;;;;;;;11.68;7.80;;;9.10;82.60;;;;;;5091046;28;20091;-71
2022/05/03 06:40:39;;;;;;;11.80;7.50;;;9.10;82.50;;;;;;5092321;28;20081;-71
2022/05/03 06:43:05;;;;;;;14.95;8.02;;;9.30;82.50;;;;;;5088507;28;20112;-72
2022/05/03 06:45:31;;;;;;;17.15;7.40;;;9.50;82.30;;;;;;5087402;28;20067;-72
2022/05/03 06:47:57;;;;;;;11.65;7.65;;;9.60;81.70;;;;;;5090011;28;20482;-72
2022/05/03 06:50:22;;;;;;;12.35;7.63;;;9.70;81.80;;;;;;5089897;28;20118;-72
2022/05/03 06:52:48;;;;;;;11.80;8.13;;;9.80;81.90;;;;;;5089931;28;20028;-72
2022/05/03 06:55:14;;;;;;;11.00;7.93;;;9.90;81.40;;;;;;5097391;28;20161;-72
2022/05/03 06:57:40;;;;;;;17.92;7.53;;;9.90;81.60;;;;;;5090586;28;20067;-72
2022/05/03 07:00:06;;;;;;;14.48;7.00;;;9.90;81.40;;;;;;5088429;28;20071;-72
2022/05/03 07:02:33;;;;;;;13.05;8.40;;;9.90;81.40;;;;;;5090275;28;20406;-72
2022/05/03 07:04:59;;;;;;;13.57;8.73;;;10.00;81.60;;;;;;5090752;28;20056;-72
2022/05/03 07:07:26;;;;;;;14.57;10.15;;;10.20;81.90;;;;;;5087581;28;20040;-72
2022/05/03 07:09:51;;;;;;;15.82;11.13;;;10.30;82.20;;;;;;5091429;28;20028;-72
2022/05/03 07:12:17;;;;;;;14.85;10.68;;;10.10;82.30;;;;;;5083037;28;20482;-72
2022/05/03 07:14:42;;;;;;;15.85;10.68;;;10.60;82.80;;;;;;5072743;28;20093;-72
2022/05/03 07:17:08;;;;;;;19.38;11.85;;;10.80;81.70;;;;;;5087507;28;20122;-72
2022/05/03 07:25:02;;;;;;;17.17;12.23;;;11.30;81.40;;;;;;5090558;28;20416;-72
2022/05/03 07:27:28;;;;;;;18.08;11.98;;;11.70;80.50;;;;;;5086885;28;20119;-72
2022/05/03 07:29:54;;;;;;;16.45;11.98;;;11.40;80.40;;;;;;5086433;28;20088;-72
2022/05/03 07:32:19;;;;;;;15.88;11.32;;;11.70;80.40;;;;;;5089638;28;20032;-72
2022/05/03 07:34:46;;;;;;;16.38;11.23;;;11.60;80.10;;;;;;5085009;28;20027;-72
2022/05/03 07:37:12;;;;;;;17.83;11.40;;;11.60;79.80;;;;;;5088855;28;20390;-72
2022/05/03 07:39:38;;;;;;;18.10;10.70;;;11.60;80.10;;;;;;5088577;28;20028;-72
2022/05/03 07:42:04;;;;;;;17.40;11.27;;;11.90;80.30;;;;;;5091337;28;20062;-72
2022/05/03 07:44:29;;;;;;;14.82;10.88;;;11.60;79.80;;;;;;5091845;28;20044;-72
2022/05/03 07:46:57;;;;;;;19.75;11.18;;;12.20;79.40;;;;;;5088925;28;20426;-73
2022/05/03 07:49:22;;;;;;;16.77;10.77;;;12.20;79.10;;;;;;5092311;28;20032;-72
2022/05/03 07:51:48;;;;;;;15.85;10.93;;;12.30;78.60;;;;;;5087409;28;20099;-72
2022/05/03 07:54:14;;;;;;;15.75;10.82;;;12.10;79.20;;;;;;5084387;28;20154;-72
2022/05/03 07:56:40;;;;;;;15.63;11.00;;;11.90;80.40;;;;;;5090107;28;20071;-72
2022/05/03 07:59:08;;;;;;;16.05;10.80;;;11.80;80.40;;;;;;5089030;28;20443;-72
2022/05/03 08:01:34;;;;;;;14.98;10.02;;;11.50;81.30;;;;;;5088390;28;20024;-72
2022/05/03 08:03:59;;;;;;;15.98;9.90;;;11.30;81.60;;;;;;5090011;28;20040;-72
2022/05/03 08:06:27;;;;;;;12.00;8.85;;;11.20;83.20;;;;;;5087248;28;20032;-72
2022/05/03 08:08:52;;;;;;;12.27;8.27;;;11.40;83.50;;;;;;5081968;28;20402;-72
2022/05/03 08:11:18;;;;;;;11.18;8.02;;;11.40;83.40;;;;;;5094070;28;20022;-71
2022/05/03 08:13:45;;;;;;;13.82;8.00;;;11.30;83.50;;;;;;5092645;28;20425;-72
2022/05/03 08:16:20;;;;;;;12.55;8.60;;;11.30;84.00;;;;;;5094848;28;20070;-72
2022/05/03 08:18:47;;;;;;;11.48;8.50;;;11.20;83.80;;;;;;5093475;28;20074;-73
2022/05/03 08:21:14;;;;;;;13.88;8.85;;;11.20;84.40;;;;;;5091441;28;20111;-71
2022/05/03 08:23:39;;;;;;;13.20;8.18;;;11.10;84.20;;;;;;5092075;28;20097;-70
2022/05/03 08:26:05;;;;;;;15.27;9.10;;;11.00;85.30;;;;;;5088946;28;20465;-72
2022/05/03 08:28:31;;;;;;;18.70;10.07;;;11.00;85.80;;;;;;5094207;28;20467;-72
2022/05/03 08:30:57;;;;;;;14.30;8.88;;;11.20;85.70;;;;;;5094519;28;20027;-72
2022/05/03 08:33:23;;;;;;;15.07;10.38;;;11.10;85.10;;;;;;5092944;28;20527;-72
2022/05/03 08:35:48;;;;;;;19.65;10.25;;;11.00;85.60;;;;;;5090615;28;20051;-72
2022/05/03 08:43:44;;;;;;;15.27;10.27;;;10.90;86.10;;;;;;5080989;28;20073;-72
2022/05/03 08:46:11;;;;;;;17.17;9.13;;;10.60;86.60;;;;;;5093373;28;20040;-71
2022/05/03 08:48:40;;;;;;;19.58;10.88;;;10.60;86.50;;;;;;5092773;28;20112;-72
2022/05/03 08:51:10;;;;;;;14.60;9.95;;;10.80;86.60;;;;;;5091531;28;20482;-72
2022/05/03 08:53:36;;;;;;;14.27;10.60;;;11.00;85.70;;;;;;5087805;28;20425;-71
2022/05/03 08:56:02;;;;;;;14.73;9.43;;;11.00;85.90;;;;;;5093430;28;20028;-72
2022/05/03 08:58:29;;;;;;;17.63;10.18;;;10.80;85.90;;;;;;5093561;28;20073;-72
2022/05/03 09:00:54;;;;;;;19.83;10.63;;;11.00;85.80;;;;;;5084641;28;20110;-72
2022/05/03 09:03:20;;;;;;;16.17;9.57;;;11.00;85.20;;;;;;5092918;28;20116;-72
2022/05/03 09:05:46;;;;;;;17.05;10.20;;;10.90;85.50;;;;;;5089107;28;20057;-72
2022/05/03 09:08:12;;;;;;;19.63;9.63;;;11.00;85.40;;;;;;5092566;28;20047;-72
2022/05/03 09:10:38;;;;;;;16.35;10.30;;;11.20;85.70;;;;;;5092722;28;20028;-71
2022/05/03 09:13:22;;;;;;;16.20;10.48;;;11.20;85.20;;;;;;5088708;28;20027;-70
2022/05/03 09:15:55;;;;;;;17.17;9.27;;;11.30;85.50;;;;;;5089885;28;20382;-72
2022/05/03 09:18:24;;;;;;;13.77;9.45;;;11.10;85.30;;;;;;5085078;28;20075;-72
2022/05/03 09:23:50;;;;;;;13.38;9.70;;;11.20;84.80;;;;;;5086611;28;20031;-71
2022/05/03 09:26:20;;;;;;;14.15;9.85;;;11.10;84.10;;;;;;5074954;28;20041;-71
2022/05/03 09:28:48;;;;;;;13.95;9.30;;;11.20;84.40;;;;;;5067547;28;20040;-71
2022/05/03 09:31:28;;;;;;;14.18;8.50;;;11.40;84.10;;;;;;5085114;28;20057;-71
2022/05/03 09:33:55;;;;;;;13.15;7.95;;;11.40;83.30;;;;;;5085497;28;20024;-71
2022/05/03 09:36:20;;;;;;;19.92;8.80;;;11.60;82.60;;;;;;5088040;28;20360;-71
2022/05/03 09:38:47;;;;;;;12.32;8.18;;;11.90;82.40;;;;;;5087835;28;20061;-72
2022/05/03 09:41:14;;;;;;;14.13;7.18;;;11.90;81.30;;;;;;5086455;28;20051;-72
2022/05/03 09:44:04;;;;;;;13.23;7.50;;;12.20;80.60;;;;;;5085884;28;20060;-71
2022/05/03 09:46:30;;;;;;;16.20;7.47;;;11.60;80.40;;;;;;5089262;28;20028;-72
2022/05/03 09:48:56;;;;;;;16.80;7.22;;;11.60;81.10;;;;;;5090396;28;20559;-71
2022/05/03 09:51:23;;;;;;;14.90;7.22;;;11.40;81.30;;;;;;5087231;28;20073;-72
2022/05/03 09:53:59;;;;;;;17.60;8.10;;;11.50;81.50;;;;;;5091480;28;20378;-71
2022/05/03 09:56:27;;;;;;;14.05;6.57;;;11.30;81.20;;;;;;5092917;28;20470;-72
2022/05/03 09:59:09;;;;;;;13.68;7.05;;;11.30;81.60;;;;;;5087233;28;20070;-72
2022/05/03 10:01:35;;;;;;;14.48;7.22;;;11.30;81.90;;;;;;5089065;28;20187;-72
2022/05/03 10:04:05;;;;;;;15.25;6.90;;;11.50;81.50;;;;;;5091741;28;20028;-72
2022/05/03 10:06:32;;;;;;;14.90;6.97;;;11.70;81.70;;;;;;5090253;28;20382;-72
2022/05/03 10:08:58;;;;;;;10.30;5.80;;;11.30;81.10;;;;;;5081087;28;20028;-72
2022/05/03 10:11:26;;;;;;;12.57;6.00;;;11.30;81.30;;;;;;5088979;28;20521;-71
2022/05/03 10:13:55;;;;;;;9.57;4.88;;;11.10;81.60;;;;;;5092484;28;20036;-71
2022/05/03 10:22:01;;;;;;;15.93;5.10;;;11.50;80.40;;;;;;5090813;28;20041;-71
2022/05/03 10:24:27;;;;;;;11.95;4.78;;;11.60;78.90;;;;;;5084254;28;20025;-72
2022/05/03 10:26:58;;;;;;;9.40;4.03;;;11.80;78.70;;;;;;5084377;28;20039;-73
2022/05/03 10:29:25;;;;;;;10.38;4.35;;;11.90;77.50;;;;;;5073726;28;20386;-72
2022/05/03 10:31:55;;;;;;;8.68;4.32;;;12.30;77.00;;;;;;5091920;28;20066;-73
2022/05/03 10:34:40;;;;;;;10.15;3.92;;;12.30;75.80;;;;;;5087746;28;20035;-73
2022/05/03 10:37:11;;;;;;;11.00;4.18;;;12.70;74.80;;;;;;5086784;28;20410;-71
2022/05/03 10:39:54;;;;;;;11.07;3.83;;;12.60;74.50;;;;;;5091545;28;20382;-71
2022/05/03 10:42:23;;;;;;;11.45;3.75;;;12.70;74.10;;;;;;5082112;28;20048;-71
2022/05/03 10:44:58;;;;;;;11.45;4.03;;;13.10;73.50;;;;;;5071282;28;20546;-72
2022/05/03 10:47:43;;;;;;;8.98;3.88;;;13.60;72.90;;;;;;5091420;28;20040;-71
2022/05/03 10:50:17;;;;;;;14.05;4.15;;;14.40;70.10;;;;;;5089510;28;20040;-71
2022/05/03 10:53:05;;;;;;;11.90;4.30;;;14.10;69.50;;;;;;5078973;28;20683;-72
2022/05/03 10:55:35;;;;;;;14.50;3.90;;;14.10;70.00;;;;;;5091519;28;20028;-72
2022/05/03 10:58:26;;;;;;;13.77;3.83;;;13.80;70.00;;;;;;5089384;28;20111;-71
2022/05/03 11:01:05;;;;;;;12.93;3.30;;;13.30;70.80;;;;;;5073405;28;20047;-71
2022/05/03 11:03:40;;;;;;;11.13;3.67;;;13.30;71.10;;;;;;5090397;28;20032;-71
2022/05/03 11:06:25;;;;;;;9.23;3.03;;;13.60;70.90;;;;;;5086563;28;20475;-73
2022/05/03 11:11:43;;;;;;;8.48;2.80;;;13.80;69.60;;;;;;5091277;28;20032;-72
2022/05/03 11:14:21;;;;;;;9.35;3.10;;;13.80;68.80;;;;;;5090201;28;20028;-72
2022/05/03 11:16:50;;;;;;;6.18;2.53;;;14.00;66.80;;;;;;5085130;28;20036;-72
2022/05/03 11:19:17;;;;;;;9.13;2.50;;;14.40;66.20;;;;;;5089561;28;20028;-72
2022/05/03 11:21:45;;;;;;;11.23;2.67;;;14.00;66.20;;;;;;5075390;28;20027;-72
2022/05/03 11:24:24;;;;;;;7.90;2.55;;;14.30;66.50;;;;;;5090919;28;20078;-72
2022/05/03 11:26:55;;;;;;;7.75;2.53;;;14.10;66.80;;;;;;5077583;28;20041;-72
2022/05/03 11:29:20;;;;;;;;;;;13.60;66.50;;;;;;5071868;28;20039;-72
2022/05/03 11:31:50;;;;;;;7.35;2.47;;;13.80;67.00;;;;;;5090371;28;19911;-72
2022/05/03 11:34:17;;;;;;;8.27;2.65;;;14.10;65.90;;;;;;5070371;28;20035;-71
2022/05/03 11:36:43;;;;;;;7.93;2.40;;;14.50;65.40;;;;;;5088279;28;20024;-71
2022/05/03 11:39:10;;;;;;;9.50;2.72;;;15.00;62.70;;;;;;5092236;28;20461;-71
2022/05/03 11:41:36;;;;;;;6.25;2.97;;;15.50;61.20;;;;;;5091081;28;20112;-71
2022/05/03 11:44:03;;;;;;;9.85;3.38;;;14.90;62.30;;;;;;5086295;28;20032;-71
2022/05/03 11:46:28;;;;;;;7.03;2.60;;;14.80;62.20;;;;;;5072665;28;20032;-71
2022/05/03 11:49:02;;;;;;;7.28;2.63;;;14.40;63.20;;;;;;5089520;28;20039;-71
2022/05/03 11:57:12;;;;;;;6.18;2.22;;;14.40;61.80;;;;;;5088943;28;20093;-71
2022/05/03 11:59:40;;;;;;;5.55;2.28;;;14.20;63.10;;;;;;5084618;28;20478;-71
2022/05/03 12:02:29;;;;;;;6.22;2.53;;;14.40;61.70;;;;;;5083169;28;20034;-71
2022/05/03 12:05:11;;;;;;;8.75;2.35;;;14.60;61.40;;;;;;5083014;28;20031;-71
2022/05/03 12:07:38;;;;;;;7.72;3.08;;;14.70;60.80;;;;;;5085226;28;20039;-72
2022/05/03 12:10:23;;;;;;;7.45;2.50;;;14.80;61.80;;;;;;5082236;28;20035;-71
2022/05/03 12:13:13;;;;;;;7.38;2.30;;;15.00;60.80;;;;;;5084426;28;20084;-71
2022/05/03 12:15:42;;;;;;;6.45;2.50;;;14.60;61.90;;;;;;5090166;28;20037;-71
2022/05/03 12:18:17;;;;;;;9.02;2.50;;;14.20;62.30;;;;;;5086819;28;20055;-72
2022/05/03 12:20:43;;;;;;;7.22;2.50;;;14.40;62.50;;;;;;5088517;28;20028;-72
2022/05/03 12:23:13;;;;;;;8.55;2.72;;;14.90;61.40;;;;;;5085342;28;20028;-72
2022/05/03 12:25:40;;;;;;;7.78;2.28;;;14.50;62.10;;;;;;5087771;28;20032;-72
2022/05/03 12:28:06;;;;;;;6.65;2.35;;;14.50;61.50;;;;;;5089740;28;20383;-71
2022/05/03 12:30:33;;;;;;;6.20;2.08;;;14.60;60.70;;;;;;5089973;28;20610;-72
2022/05/03 12:33:06;;;;;;;9.70;3.10;;;14.90;60.70;;;;;;5083840;28;20771;-70
2022/05/03 12:35:33;;;;;;;5.40;2.00;;;15.70;60.20;;;;;;5084497;28;20537;-70
2022/05/03 12:38:11;;;;;;;6.65;2.08;;;16.90;55.90;;;;;;5088962;28;20483;-70
2022/05/03 12:40:57;;;;;;;7.25;2.42;;;16.50;54.60;;;;;;5082860;28;20028;-70
2022/05/03 12:43:28;;;;;;;4.68;1.88;;;15.40;56.40;;;;;;5088492;28;20023;-70
2022/05/03 12:46:00;;;;;;;8.23;2.35;;;15.30;57.10;;;;;;5088191;28;20035;-70
2022/05/03 12:48:27;;;;;;;6.50;2.22;;;15.50;57.20;;;;;;5088482;28;20028;-70
2022/05/03 12:50:53;;;;;;;7.82;1.92;;;15.10;58.00;;;;;;5081583;28;20072;-70
2022/05/03 12:53:26;;;;;;;5.85;2.17;;;14.70;60.10;;;;;;5088077;28;20032;-69
2022/05/03 12:55:53;;;;;;;5.40;2.05;;;15.00;59.10;;;;;;5098255;28;20024;-70
2022/05/03 12:58:21;;;;;;;11.02;1.92;;;15.00;59.10;;;;;;5086277;28;20425;-69
2022/05/03 13:00:48;;;;;;;7.90;2.28;;;15.00;59.10;;;;;;5085026;28;20036;-70
2022/05/03 13:03:13;;;;;;;5.38;1.90;;;14.90;59.00;;;;;;5089213;28;20462;-70
2022/05/03 13:05:39;;;;;;;4.70;1.98;;;14.80;60.30;;;;;;5090454;28;20058;-69
2022/05/03 13:08:05;;;;;;;5.38;1.83;;;15.40;57.70;;;;;;5090421;28;20379;-69
2022/05/03 13:10:33;;;;;;;4.90;1.70;;;15.60;56.60;;;;;;5087594;28;20036;-69
2022/05/03 13:13:00;;;;;;;9.32;1.98;;;15.30;56.70;;;;;;5093090;28;20038;-70
2022/05/03 13:15:26;;;;;;;7.50;1.63;;;15.00;57.10;;;;;;5085060;28;20028;-70
2022/05/03 13:17:51;;;;;;;6.65;1.60;;;14.60;58.10;;;;;;5092456;28;20065;-69
2022/05/03 13:20:18;;;;;;;5.15;1.55;;;14.40;58.50;;;;;;5087136;28;20494;-69
2022/05/03 13:22:44;;;;;;;7.30;1.55;;;14.60;59.20;;;;;;5090791;28;20020;-69
2022/05/03 13:25:09;;;;;;;5.55;2.10;;;15.50;56.60;;;;;;5090046;28;20043;-71
2022/05/03 13:27:35;;;;;;;6.47;1.67;;;15.10;55.80;;;;;;5086017;28;20028;-71
2022/05/03 13:30:00;;;;;;;3.83;1.67;;;15.00;56.30;;;;;;5093108;28;20110;-71
2022/05/03 13:32:26;;;;;;;3.05;1.33;;;14.80;57.00;;;;;;5079598;28;20070;-71
2022/05/03 13:34:51;;;;;;;6.55;1.42;;;14.70;56.00;;;;;;5088513;28;20044;-72
2022/05/03 13:40:28;;;;;;;4.10;1.40;;;15.70;53.20;;;;;;5091737;28;20054;-71
2022/05/03 13:42:55;;;;;;;3.53;1.30;;;16.40;52.30;;;;;;5082292;28;20089;-71
2022/05/03 13:45:21;;;;;;;6.60;1.38;;;16.10;51.60;;;;;;5093687;28;20039;-71